sensor_id;sensor_type;location;lat;lon;timestamp;pressure;altitude;pressure_sealevel;temperature;humidity
29549;BME280;16487;53.094;8.800;2023-04-21T00:01:33;100656.44;;;8.63;100.00
29549;BME280;16487;53.094;8.800;2023-04-21T00:04:01;100657.91;;;8.68;100.00
29549;BME280;16487;53.094;8.800;2023-04-21T00:06:28;100659.22;;;8.63;100.00
29549;BME280;16487;53.094;8.800;2023-04-21T00:08:56;100651.75;;;8.60;100.00
29549;BME280;16487;53.094;8.800;2023-04-21T00:11:23;100657.81;;;8.55;100.00
29549;BME280;16487;53.094;8.800;2023-04-21T00:13:50;100652.59;;;8.57;100.00
29549;BME280;16487;53.094;8.800;2023-04-21T00:16:18;100658.31;;;8.50;100.00
29549;BME280;16487;53.094;8.800;2023-04-21T00:18:47;100651.91;;;8.53;100.00
29549;BME280;16487;53.094;8.800;2023-04-21T00:21:15;100647.53;;;8.52;100.00
29549;BME280;16487;53.094;8.800;2023-04-21T00:23:42;100644.09;;;8.48;100.00
29549;BME280;16487;53.094;8.800;2023-04-21T00:26:09;100643.22;;;8.51;100.00
29549;BME280;16487;53.094;8.800;2023-04-21T00:28:37;100636.09;;;8.50;100.00
29549;BME280;16487;53.094;8.800;2023-04-21T00:31:04;100643.22;;;8.51;100.00
29549;BME280;16487;53.094;8.800;2023-04-21T00:33:32;100643.28;;;8.48;100.00
29549;BME280;16487;53.094;8.800;2023-04-21T00:36:01;100640.16;;;8.46;100.00
29549;BME280;16487;53.094;8.800;2023-04-21T00:38:28;100632.97;;;8.48;100.00
29549;BME280;16487;53.094;8.800;2023-04-21T00:40:55;100636.78;;;8.54;100.00
29549;BME280;16487;53.094;8.800;2023-04-21T00:43:23;100638.28;;;8.59;100.00
29549;BME280;16487;53.094;8.800;2023-04-21T00:45:53;100636.63;;;8.61;100.00
29549;BME280;16487;53.094;8.800;2023-04-21T00:48:20;100638.69;;;8.57;100.00
29549;BME280;16487;53.094;8.800;2023-04-21T00:50:48;100640.09;;;8.49;100.00
29549;BME280;16487;53.094;8.800;2023-04-21T00:53:18;100637.91;;;8.41;100.00
29549;BME280;16487;53.094;8.800;2023-04-21T00:55:46;100635.56;;;8.39;100.00
29549;BME280;16487;53.094;8.800;2023-04-21T00:58:14;100631.72;;;8.33;100.00
29549;BME280;16487;53.094;8.800;2023-04-21T01:00:41;100641.34;;;8.29;100.00
29549;BME280;16487;53.094;8.800;2023-04-21T01:03:09;100628.25;;;8.29;100.00
29549;BME280;16487;53.094;8.800;2023-04-21T01:05:37;100641.34;;;8.29;100.00
29549;BME280;16487;53.094;8.800;2023-04-21T01:08:05;100623.97;;;8.25;100.00
29549;BME280;16487;53.094;8.800;2023-04-21T01:10:34;100635.47;;;8.23;100.00
29549;BME280;16487;53.094;8.800;2023-04-21T01:13:01;100625.25;;;8.20;100.00
29549;BME280;16487;53.094;8.800;2023-04-21T01:15:28;100631.31;;;8.15;100.00
29549;BME280;16487;53.094;8.800;2023-04-21T01:17:57;100629.88;;;8.07;100.00
29549;BME280;16487;53.094;8.800;2023-04-21T01:20:25;100612.03;;;8.08;100.00
29549;BME280;16487;53.094;8.800;2023-04-21T01:22:53;100624.25;;;8.10;100.00
29549;BME280;16487;53.094;8.800;2023-04-21T01:25:20;100599.69;;;8.09;100.00
29549;BME280;16487;53.094;8.800;2023-04-21T01:27:48;100615.75;;;8.01;100.00
29549;BME280;16487;53.094;8.800;2023-04-21T01:30:15;100612.53;;;8.03;100.00
29549;BME280;16487;53.094;8.800;2023-04-21T01:32:42;100617.38;;;7.99;100.00
29549;BME280;16487;53.094;8.800;2023-04-21T01:35:10;100615.81;;;7.98;100.00
29549;BME280;16487;53.094;8.800;2023-04-21T01:37:38;100608.25;;;7.98;100.00
29549;BME280;16487;53.094;8.800;2023-04-21T01:40:08;100603.13;;;7.97;100.00
29549;BME280;16487;53.094;8.800;2023-04-21T01:42:39;100610.41;;;7.91;100.00
29549;BME280;16487;53.094;8.800;2023-04-21T01:45:07;100593.34;;;7.92;100.00
29549;BME280;16487;53.094;8.800;2023-04-21T01:47:36;100597.22;;;7.95;100.00
29549;BME280;16487;53.094;8.800;2023-04-21T01:50:06;100589.06;;;7.88;100.00
29549;BME280;16487;53.094;8.800;2023-04-21T01:52:33;100588.28;;;7.87;100.00
29549;BME280;16487;53.094;8.800;2023-04-21T01:55:01;100587.50;;;7.87;100.00
29549;BME280;16487;53.094;8.800;2023-04-21T01:57:30;100589.41;;;7.90;100.00
29549;BME280;16487;53.094;8.800;2023-04-21T01:59:57;100575.19;;;7.88;100.00
29549;BME280;16487;53.094;8.800;2023-04-21T02:02:26;100583.44;;;7.91;100.00
29549;BME280;16487;53.094;8.800;2023-04-21T02:04:53;100580.25;;;7.93;100.00
29549;BME280;16487;53.094;8.800;2023-04-21T02:07:21;100585.81;;;7.93;100.00
29549;BME280;16487;53.094;8.800;2023-04-21T02:09:48;100588.22;;;7.91;100.00
29549;BME280;16487;53.094;8.800;2023-04-21T02:12:15;100578.75;;;7.88;100.00
29549;BME280;16487;53.094;8.800;2023-04-21T02:14:44;100577.47;;;7.93;100.00
29549;BME280;16487;53.094;8.800;2023-04-21T02:17:11;100579.91;;;7.91;100.00
29549;BME280;16487;53.094;8.800;2023-04-21T02:19:39;100590.19;;;7.90;100.00
29549;BME280;16487;53.094;8.800;2023-04-21T02:22:06;100584.22;;;7.92;100.00
29549;BME280;16487;53.094;8.800;2023-04-21T02:24:33;100587.13;;;7.85;100.00
29549;BME280;16487;53.094;8.800;2023-04-21T02:27:01;100591.56;;;7.82;100.00
29549;BME280;16487;53.094;8.800;2023-04-21T02:29:28;100589.84;;;7.88;100.00
29549;BME280;16487;53.094;8.800;2023-04-21T02:31:57;100586.63;;;7.90;100.00
29549;BME280;16487;53.094;8.800;2023-04-21T02:34:40;100589.19;;;7.81;100.00
29549;BME280;16487;53.094;8.800;2023-04-21T02:37:07;100585.16;;;7.85;100.00
29549;BME280;16487;53.094;8.800;2023-04-21T02:39:35;100589.06;;;7.88;100.00
29549;BME280;16487;53.094;8.800;2023-04-21T02:42:04;100585.88;;;7.89;100.00
29549;BME280;16487;53.094;8.800;2023-04-21T02:44:32;100595.47;;;7.85;100.00
29549;BME280;16487;53.094;8.800;2023-04-21T02:47:01;100596.31;;;7.82;100.00
29549;BME280;16487;53.094;8.800;2023-04-21T02:49:28;100592.91;;;7.74;100.00
29549;BME280;16487;53.094;8.800;2023-04-21T02:51:57;100589.91;;;7.85;100.00
29549;BME280;16487;53.094;8.800;2023-04-21T02:54:24;100585.16;;;7.85;100.00
29549;BME280;16487;53.094;8.800;2023-04-21T02:56:51;100589.13;;;7.84;100.00
29549;BME280;16487;53.094;8.800;2023-04-21T02:59:19;100584.56;;;7.94;100.00
29549;BME280;16487;53.094;8.800;2023-04-21T03:01:49;100584.94;;;7.96;100.00
29549;BME280;16487;53.094;8.800;2023-04-21T03:04:18;100597.66;;;7.93;100.00
29549;BME280;16487;53.094;8.800;2023-04-21T03:06:46;100593.06;;;7.87;100.00
29549;BME280;16487;53.094;8.800;2023-04-21T03:09:13;100595.53;;;7.81;100.00
29549;BME280;16487;53.094;8.800;2023-04-21T03:11:40;100595.25;;;7.76;100.00
29549;BME280;16487;53.094;8.800;2023-04-21T03:14:08;100582.88;;;7.80;100.00
29549;BME280;16487;53.094;8.800;2023-04-21T03:16:35;100597.13;;;7.82;100.00
29549;BME280;16487;53.094;8.800;2023-04-21T03:19:02;100590.13;;;7.74;100.00
29549;BME280;16487;53.094;8.800;2023-04-21T03:21:31;100594.84;;;7.77;100.00
29549;BME280;16487;53.094;8.800;2023-04-21T03:23:58;100588.50;;;7.77;100.00
29549;BME280;16487;53.094;8.800;2023-04-21T03:26:25;100584.00;;;7.83;100.00
29549;BME280;16487;53.094;8.800;2023-04-21T03:28:53;100578.22;;;7.77;100.00
29549;BME280;16487;53.094;8.800;2023-04-21T03:31:20;100575.75;;;7.79;100.00
29549;BME280;16487;53.094;8.800;2023-04-21T03:33:47;100572.00;;;7.70;100.00
29549;BME280;16487;53.094;8.800;2023-04-21T03:36:15;100574.78;;;7.70;100.00
29549;BME280;16487;53.094;8.800;2023-04-21T03:38:44;100577.19;;;7.68;100.00
29549;BME280;16487;53.094;8.800;2023-04-21T03:41:11;100579.84;;;7.75;100.00
29549;BME280;16487;53.094;8.800;2023-04-21T03:43:38;100580.69;;;7.72;100.00
29549;BME280;16487;53.094;8.800;2023-04-21T03:46:06;100581.19;;;7.67;100.00
29549;BME280;16487;53.094;8.800;2023-04-21T03:48:33;100577.56;;;7.70;100.00
29549;BME280;16487;53.094;8.800;2023-04-21T03:51:00;100585.66;;;7.61;100.00
29549;BME280;16487;53.094;8.800;2023-04-21T03:53:28;100575.22;;;7.68;100.00
29549;BME280;16487;53.094;8.800;2023-04-21T03:55:57;100582.75;;;7.68;100.00
29549;BME280;16487;53.094;8.800;2023-04-21T03:58:24;100579.09;;;7.71;100.00
29549;BME280;16487;53.094;8.800;2023-04-21T04:00:51;100570.44;;;7.69;100.00
29549;BME280;16487;53.094;8.800;2023-04-21T04:03:18;100579.19;;;7.67;100.00
29549;BME280;16487;53.094;8.800;2023-04-21T04:05:49;100576.78;;;7.69;100.00
29549;BME280;16487;53.094;8.800;2023-04-21T04:08:16;100572.38;;;7.72;100.00
29549;BME280;16487;53.094;8.800;2023-04-21T04:10:44;100576.78;;;7.69;100.00
29549;BME280;16487;53.094;8.800;2023-04-21T04:13:13;100575.97;;;7.69;100.00
29549;BME280;16487;53.094;8.800;2023-04-21T04:15:40;100565.69;;;7.69;100.00
29549;BME280;16487;53.094;8.800;2023-04-21T04:18:07;100574.78;;;7.70;100.00
29549;BME280;16487;53.094;8.800;2023-04-21T04:20:35;100578.44;;;7.67;100.00
29549;BME280;16487;53.094;8.800;2023-04-21T04:23:02;100566.75;;;7.75;100.00
29549;BME280;16487;53.094;8.800;2023-04-21T04:25:29;100581.94;;;7.87;100.00
29549;BME280;16487;53.094;8.800;2023-04-21T04:27:57;100581.59;;;7.85;100.00
29549;BME280;16487;53.094;8.800;2023-04-21T04:30:25;100586.28;;;7.88;100.00
29549;BME280;16487;53.094;8.800;2023-04-21T04:32:53;100585.09;;;7.89;100.00
29549;BME280;16487;53.094;8.800;2023-04-21T04:35:20;100597.88;;;7.83;100.00
29549;BME280;16487;53.094;8.800;2023-04-21T04:37:47;100597.53;;;7.81;100.00
29549;BME280;16487;53.094;8.800;2023-04-21T04:40:14;100601.00;;;7.85;100.00
29549;BME280;16487;53.094;8.800;2023-04-21T04:42:42;100598.97;;;7.89;100.00
29549;BME280;16487;53.094;8.800;2023-04-21T04:45:09;100611.75;;;7.83;100.00
29549;BME280;16487;53.094;8.800;2023-04-21T04:47:38;100610.56;;;7.84;100.00
29549;BME280;16487;53.094;8.800;2023-04-21T04:50:06;100609.69;;;7.87;100.00
29549;BME280;16487;53.094;8.800;2023-04-21T04:52:33;100617.53;;;7.92;100.00
29549;BME280;16487;53.094;8.800;2023-04-21T04:55:01;100634.16;;;7.92;100.00
29549;BME280;16487;53.094;8.800;2023-04-21T04:57:29;100630.66;;;7.88;100.00
29549;BME280;16487;53.094;8.800;2023-04-21T04:59:56;100627.06;;;7.91;100.00
29549;BME280;16487;53.094;8.800;2023-04-21T05:02:24;100624.66;;;7.93;100.00
29549;BME280;16487;53.094;8.800;2023-04-21T05:04:53;100622.56;;;7.97;100.00
29549;BME280;16487;53.094;8.800;2023-04-21T05:07:20;100624.47;;;8.00;100.00
29549;BME280;16487;53.094;8.800;2023-04-21T05:09:48;100635.56;;;8.00;100.00
29549;BME280;16487;53.094;8.800;2023-04-21T05:12:15;100639.44;;;8.06;100.00
29549;BME280;16487;53.094;8.800;2023-04-21T05:14:42;100632.25;;;8.08;100.00
29549;BME280;16487;53.094;8.800;2023-04-21T05:17:10;100639.28;;;8.13;100.00
29549;BME280;16487;53.094;8.800;2023-04-21T05:19:37;100647.09;;;8.18;100.00
29549;BME280;16487;53.094;8.800;2023-04-21T05:22:06;100654.19;;;8.19;100.00
29549;BME280;16487;53.094;8.800;2023-04-21T05:24:33;100651.75;;;8.25;100.00
29549;BME280;16487;53.094;8.800;2023-04-21T05:27:01;100653.56;;;8.31;100.00
29549;BME280;16487;53.094;8.800;2023-04-21T05:29:28;100662.97;;;8.37;100.00
29549;BME280;16487;53.094;8.800;2023-04-21T05:31:56;100674.06;;;8.37;100.00
29549;BME280;16487;53.094;8.800;2023-04-21T05:34:23;100669.50;;;8.47;100.00
29549;BME280;16487;53.094;8.800;2023-04-21T05:36:50;100682.88;;;8.52;100.00
29549;BME280;16487;53.094;8.800;2023-04-21T05:39:21;100693.94;;;8.55;100.00
29549;BME280;16487;53.094;8.800;2023-04-21T05:41:49;100702.50;;;8.61;100.00
29549;BME280;16487;53.094;8.800;2023-04-21T05:44:16;100707.97;;;8.64;100.00
29549;BME280;16487;53.094;8.800;2023-04-21T05:46:44;100719.81;;;8.68;100.00
29549;BME280;16487;53.094;8.800;2023-04-21T05:49:12;100726.06;;;8.72;100.00
29549;BME280;16487;53.094;8.800;2023-04-21T05:51:39;100720.38;;;8.79;100.00
29549;BME280;16487;53.094;8.800;2023-04-21T05:54:07;100742.44;;;8.86;100.00
29549;BME280;16487;53.094;8.800;2023-04-21T05:56:36;100741.47;;;8.93;100.00
29549;BME280;16487;53.094;8.800;2023-04-21T05:59:03;100749.38;;;8.94;100.00
29549;BME280;16487;53.094;8.800;2023-04-21T06:01:30;100764.31;;;9.00;100.00
29549;BME280;16487;53.094;8.800;2023-04-21T06:03:58;100771.31;;;9.08;100.00
29549;BME280;16487;53.094;8.800;2023-04-21T06:06:25;100784.59;;;9.17;100.00
29549;BME280;16487;53.094;8.800;2023-04-21T06:08:53;100791.13;;;9.26;100.00
29549;BME280;16487;53.094;8.800;2023-04-21T06:11:20;100804.00;;;9.37;100.00
29549;BME280;16487;53.094;8.800;2023-04-21T06:13:49;100816.97;;;9.43;100.00
29549;BME280;16487;53.094;8.800;2023-04-21T06:16:16;100836.72;;;9.49;100.00
29549;BME280;16487;53.094;8.800;2023-04-21T06:18:44;100849.66;;;9.55;100.00
29549;BME280;16487;53.094;8.800;2023-04-21T06:21:11;100868.53;;;9.64;100.00
29549;BME280;16487;53.094;8.800;2023-04-21T06:23:38;100872.03;;;9.68;100.00
29549;BME280;16487;53.094;8.800;2023-04-21T06:26:06;100906.66;;;9.83;100.00
29549;BME280;16487;53.094;8.800;2023-04-21T06:28:34;100919.25;;;9.87;100.00
29549;BME280;16487;53.094;8.800;2023-04-21T06:31:03;100939.19;;;10.02;100.00
29549;BME280;16487;53.094;8.800;2023-04-21T06:33:34;100981.22;;;10.07;100.00
29549;BME280;16487;53.094;8.800;2023-04-21T06:36:02;101007.72;;;10.15;100.00
29549;BME280;16487;53.094;8.800;2023-04-21T06:38:30;101044.56;;;10.23;100.00
29549;BME280;16487;53.094;8.800;2023-04-21T06:40:57;101052.31;;;10.31;100.00
29549;BME280;16487;53.094;8.800;2023-04-21T06:43:25;101074.50;;;10.51;100.00
29549;BME280;16487;53.094;8.800;2023-04-21T06:45:52;101106.75;;;10.52;100.00
29549;BME280;16487;53.094;8.800;2023-04-21T06:48:21;101125.72;;;10.57;100.00
29549;BME280;16487;53.094;8.800;2023-04-21T06:50:48;101144.19;;;10.67;100.00
29549;BME280;16487;53.094;8.800;2023-04-21T06:53:15;101164.44;;;10.71;100.00
29549;BME280;16487;53.094;8.800;2023-04-21T06:55:42;101185.78;;;10.78;100.00
29549;BME280;16487;53.094;8.800;2023-04-21T06:58:10;101194.31;;;10.87;100.00
29549;BME280;16487;53.094;8.800;2023-04-21T07:00:37;101205.16;;;11.01;100.00
29549;BME280;16487;53.094;8.800;2023-04-21T07:03:05;101215.00;;;11.05;100.00
29549;BME280;16487;53.094;8.800;2023-04-21T07:05:34;101234.25;;;11.16;100.00
29549;BME280;16487;53.094;8.800;2023-04-21T07:08:02;101249.28;;;11.22;100.00
29549;BME280;16487;53.094;8.800;2023-04-21T07:10:29;101267.56;;;11.23;100.00
29549;BME280;16487;53.094;8.800;2023-04-21T07:12:56;101265.06;;;11.28;100.00
29549;BME280;16487;53.094;8.800;2023-04-21T07:15:24;101273.63;;;11.37;100.00
29549;BME280;16487;53.094;8.800;2023-04-21T07:17:51;101288.34;;;11.54;100.00
29549;BME280;16487;53.094;8.800;2023-04-21T07:20:19;101303.44;;;11.57;100.00
29549;BME280;16487;53.094;8.800;2023-04-21T07:22:47;101299.97;;;11.69;100.00
29549;BME280;16487;53.094;8.800;2023-04-21T07:25:15;101324.81;;;11.79;100.00
29549;BME280;16487;53.094;8.800;2023-04-21T07:27:42;101313.78;;;11.76;100.00
29549;BME280;16487;53.094;8.800;2023-04-21T07:30:10;101340.78;;;11.95;100.00
29549;BME280;16487;53.094;8.800;2023-04-21T07:32:38;101351.94;;;12.11;100.00
29549;BME280;16487;53.094;8.800;2023-04-21T07:35:06;101373.22;;;12.21;100.00
29549;BME280;16487;53.094;8.800;2023-04-21T07:37:34;101379.00;;;12.30;100.00
29549;BME280;16487;53.094;8.800;2023-04-21T07:40:03;101391.06;;;12.27;100.00
29549;BME280;16487;53.094;8.800;2023-04-21T07:42:31;101394.16;;;12.45;100.00
29549;BME280;16487;53.094;8.800;2023-04-21T07:44:58;101413.25;;;12.62;100.00
29549;BME280;16487;53.094;8.800;2023-04-21T07:47:26;101430.03;;;12.62;100.00
29549;BME280;16487;53.094;8.800;2023-04-21T07:49:53;101437.59;;;12.78;100.00
29549;BME280;16487;53.094;8.800;2023-04-21T07:52:21;101456.13;;;12.88;100.00
29549;BME280;16487;53.094;8.800;2023-04-21T07:54:48;101476.13;;;13.03;100.00
29549;BME280;16487;53.094;8.800;2023-04-21T07:57:17;101494.88;;;13.18;100.00
29549;BME280;16487;53.094;8.800;2023-04-21T07:59:44;101505.66;;;13.32;100.00
29549;BME280;16487;53.094;8.800;2023-04-21T08:02:12;101515.09;;;13.38;100.00
29549;BME280;16487;53.094;8.800;2023-04-21T08:04:39;101528.56;;;13.43;100.00
29549;BME280;16487;53.094;8.800;2023-04-21T08:07:06;101535.84;;;13.53;100.00
29549;BME280;16487;53.094;8.800;2023-04-21T08:09:35;101549.25;;;13.74;100.00
29549;BME280;16487;53.094;8.800;2023-04-21T08:12:02;101563.16;;;13.91;100.00
29549;BME280;16487;53.094;8.800;2023-04-21T08:14:31;101572.59;;;13.97;100.00
29549;BME280;16487;53.094;8.800;2023-04-21T08:16:58;101580.66;;;13.95;100.00
29549;BME280;16487;53.094;8.800;2023-04-21T08:19:26;101590.97;;;13.98;100.00
29549;BME280;16487;53.094;8.800;2023-04-21T08:21:53;101585.28;;;14.14;100.00
29549;BME280;16487;53.094;8.800;2023-04-21T08:24:21;101588.00;;;14.30;100.00
29549;BME280;16487;53.094;8.800;2023-04-21T08:26:49;101609.34;;;14.52;100.00
29549;BME280;16487;53.094;8.800;2023-04-21T08:29:16;101623.69;;;14.54;100.00
29549;BME280;16487;53.094;8.800;2023-04-21T08:31:45;101650.75;;;14.73;100.00
29549;BME280;16487;53.094;8.800;2023-04-21T08:34:12;101674.97;;;14.80;100.00
29549;BME280;16487;53.094;8.800;2023-04-21T08:36:40;101691.38;;;14.94;100.00
29549;BME280;16487;53.094;8.800;2023-04-21T08:39:07;101696.38;;;15.12;100.00
29549;BME280;16487;53.094;8.800;2023-04-21T08:41:37;101714.81;;;15.25;100.00
29549;BME280;16487;53.094;8.800;2023-04-21T08:44:05;101711.44;;;15.30;100.00
29549;BME280;16487;53.094;8.800;2023-04-21T08:46:32;101732.31;;;15.42;100.00
29549;BME280;16487;53.094;8.800;2023-04-21T08:49:02;101736.03;;;15.51;100.00
29549;BME280;16487;53.094;8.800;2023-04-21T08:51:30;101744.88;;;15.62;100.00
29549;BME280;16487;53.094;8.800;2023-04-21T08:53:57;101754.72;;;15.79;100.00
29549;BME280;16487;53.094;8.800;2023-04-21T08:56:24;101752.81;;;15.76;100.00
29549;BME280;16487;53.094;8.800;2023-04-21T08:58:52;101752.09;;;15.85;100.00
29549;BME280;16487;53.094;8.800;2023-04-21T09:01:20;101761.72;;;15.96;100.00
29549;BME280;16487;53.094;8.800;2023-04-21T09:03:47;101769.34;;;16.09;100.00
29549;BME280;16487;53.094;8.800;2023-04-21T09:06:16;101768.81;;;16.01;100.00
29549;BME280;16487;53.094;8.800;2023-04-21T09:08:53;101772.00;;;16.12;100.00
29549;BME280;16487;53.094;8.800;2023-04-21T09:11:21;101777.06;;;16.39;100.00
29549;BME280;16487;53.094;8.800;2023-04-21T09:13:48;101783.91;;;16.72;100.00
29549;BME280;16487;53.094;8.800;2023-04-21T09:16:17;101782.03;;;16.78;100.00
29549;BME280;16487;53.094;8.800;2023-04-21T09:18:45;101793.94;;;16.82;100.00
29549;BME280;16487;53.094;8.800;2023-04-21T09:21:14;101793.41;;;16.96;100.00
29549;BME280;16487;53.094;8.800;2023-04-21T09:23:46;101802.81;;;17.33;100.00
29549;BME280;16487;53.094;8.800;2023-04-21T09:26:15;101805.13;;;17.25;100.00
29549;BME280;16487;53.094;8.800;2023-04-21T09:28:43;101813.88;;;17.49;100.00
29549;BME280;16487;53.094;8.800;2023-04-21T09:31:14;101816.22;;;17.59;100.00
29549;BME280;16487;53.094;8.800;2023-04-21T09:33:46;101815.47;;;17.68;100.00
29549;BME280;16487;53.094;8.800;2023-04-21T09:36:27;101817.84;;;17.87;100.00
29549;BME280;16487;53.094;8.800;2023-04-21T09:38:57;101822.09;;;17.92;100.00
29549;BME280;16487;53.094;8.800;2023-04-21T09:41:44;101814.75;;;18.12;100.00
29549;BME280;16487;53.094;8.800;2023-04-21T09:44:12;101814.75;;;18.40;100.00
29549;BME280;16487;53.094;8.800;2023-04-21T09:46:41;101818.09;;;19.07;100.00
29549;BME280;16487;53.094;8.800;2023-04-21T09:49:10;101796.28;;;20.20;100.00
29549;BME280;16487;53.094;8.800;2023-04-21T09:51:41;101799.28;;;21.27;100.00
29549;BME280;16487;53.094;8.800;2023-04-21T09:54:31;101786.28;;;21.90;100.00
29549;BME280;16487;53.094;8.800;2023-04-21T09:57:01;101774.91;;;22.10;100.00
29549;BME280;16487;53.094;8.800;2023-04-21T09:59:33;101765.66;;;22.15;100.00
29549;BME280;16487;53.094;8.800;2023-04-21T10:02:04;101747.09;;;23.28;100.00
29549;BME280;16487;53.094;8.800;2023-04-21T10:04:33;101751.81;;;22.48;100.00
29549;BME280;16487;53.094;8.800;2023-04-21T10:07:02;101759.41;;;21.71;100.00
29549;BME280;16487;53.094;8.800;2023-04-21T10:09:36;101751.28;;;21.44;100.00
29549;BME280;16487;53.094;8.800;2023-04-21T10:12:05;101746.03;;;21.92;100.00
29549;BME280;16487;53.094;8.800;2023-04-21T10:14:35;101746.72;;;22.32;100.00
29549;BME280;16487;53.094;8.800;2023-04-21T10:17:04;101710.06;;;23.70;100.00
29549;BME280;16487;53.094;8.800;2023-04-21T10:19:33;101733.34;;;22.90;100.00
29549;BME280;16487;53.094;8.800;2023-04-21T10:22:01;101701.91;;;23.41;100.00
29549;BME280;16487;53.094;8.800;2023-04-21T10:24:30;101717.44;;;23.09;100.00
29549;BME280;16487;53.094;8.800;2023-04-21T10:27:02;101705.50;;;22.99;100.00
29549;BME280;16487;53.094;8.800;2023-04-21T10:29:31;101700.91;;;22.76;100.00
29549;BME280;16487;53.094;8.800;2023-04-21T10:32:30;101706.84;;;23.09;100.00
29549;BME280;16487;53.094;8.800;2023-04-21T10:34:58;101710.69;;;22.69;100.00
29549;BME280;16487;53.094;8.800;2023-04-21T10:37:30;101715.66;;;22.49;100.00
29549;BME280;16487;53.094;8.800;2023-04-21T10:39:58;101696.56;;;22.81;100.00
29549;BME280;16487;53.094;8.800;2023-04-21T10:42:32;101699.34;;;22.44;100.00
29549;BME280;16487;53.094;8.800;2023-04-21T10:45:04;101691.19;;;23.25;100.00
29549;BME280;16487;53.094;8.800;2023-04-21T10:47:36;101682.88;;;23.74;100.00
29549;BME280;16487;53.094;8.800;2023-04-21T10:50:15;101670.06;;;23.37;100.00
29549;BME280;16487;53.094;8.800;2023-04-21T10:52:44;101659.44;;;24.02;100.00
29549;BME280;16487;53.094;8.800;2023-04-21T10:55:13;101632.97;;;23.90;100.00
29549;BME280;16487;53.094;8.800;2023-04-21T10:57:42;101633.84;;;23.37;100.00
29549;BME280;16487;53.094;8.800;2023-04-21T11:00:13;101637.09;;;23.83;100.00
29549;BME280;16487;53.094;8.800;2023-04-21T11:02:41;101628.56;;;23.83;100.00
29549;BME280;16487;53.094;8.800;2023-04-21T11:05:11;101626.56;;;24.23;100.00
29549;BME280;16487;53.094;8.800;2023-04-21T11:07:39;101602.22;;;24.55;100.00
29549;BME280;16487;53.094;8.800;2023-04-21T11:10:07;101614.38;;;24.00;100.00
29549;BME280;16487;53.094;8.800;2023-04-21T11:12:38;101600.91;;;24.01;100.00
29549;BME280;16487;53.094;8.800;2023-04-21T11:15:07;101585.41;;;24.29;100.00
29549;BME280;16487;53.094;8.800;2023-04-21T11:17:36;101591.56;;;24.55;100.00
29549;BME280;16487;53.094;8.800;2023-04-21T11:20:05;101549.97;;;25.10;100.00
29549;BME280;16487;53.094;8.800;2023-04-21T11:22:33;101582.28;;;24.05;100.00
29549;BME280;16487;53.094;8.800;2023-04-21T11:25:02;101587.88;;;23.66;100.00
29549;BME280;16487;53.094;8.800;2023-04-21T11:27:29;101594.22;;;22.81;100.00
29549;BME280;16487;53.094;8.800;2023-04-21T11:30:02;101614.09;;;22.13;100.00
29549;BME280;16487;53.094;8.800;2023-04-21T11:32:29;101578.06;;;23.09;100.00
29549;BME280;16487;53.094;8.800;2023-04-21T11:34:57;101573.34;;;23.53;100.00
29549;BME280;16487;53.094;8.800;2023-04-21T11:37:25;101567.47;;;23.84;100.00
29549;BME280;16487;53.094;8.800;2023-04-21T11:39:56;101558.63;;;24.87;100.00
29549;BME280;16487;53.094;8.800;2023-04-21T11:42:24;101556.38;;;24.20;100.00
29549;BME280;16487;53.094;8.800;2023-04-21T11:44:53;101532.94;;;24.87;100.00
29549;BME280;16487;53.094;8.800;2023-04-21T11:47:23;101535.91;;;25.69;100.00
29549;BME280;16487;53.094;8.800;2023-04-21T11:49:53;101522.19;;;25.62;100.00
29549;BME280;16487;53.094;8.800;2023-04-21T11:52:22;101523.03;;;25.00;100.00
29549;BME280;16487;53.094;8.800;2023-04-21T11:54:54;101525.53;;;25.20;100.00
29549;BME280;16487;53.094;8.800;2023-04-21T11:57:22;101530.69;;;24.58;100.00
29549;BME280;16487;53.094;8.800;2023-04-21T11:59:50;101541.94;;;23.26;100.00
29549;BME280;16487;53.094;8.800;2023-04-21T12:02:24;101532.97;;;23.44;100.00
29549;BME280;16487;53.094;8.800;2023-04-21T12:04:59;101514.78;;;24.90;100.00
29549;BME280;16487;53.094;8.800;2023-04-21T12:07:31;101512.81;;;25.67;100.00
29549;BME280;16487;53.094;8.800;2023-04-21T12:09:59;101488.31;;;26.36;100.00
29549;BME280;16487;53.094;8.800;2023-04-21T12:12:28;101494.53;;;25.81;100.00
29549;BME280;16487;53.094;8.800;2023-04-21T12:14:55;101474.69;;;26.24;100.00
29549;BME280;16487;53.094;8.800;2023-04-21T12:17:24;101494.31;;;25.73;100.00
29549;BME280;16487;53.094;8.800;2023-04-21T12:19:51;101497.50;;;25.24;100.00
29549;BME280;16487;53.094;8.800;2023-04-21T12:22:19;101478.50;;;26.02;100.00
29549;BME280;16487;53.094;8.800;2023-04-21T12:24:46;101476.72;;;25.99;100.00
29549;BME280;16487;53.094;8.800;2023-04-21T12:27:13;101475.09;;;24.92;100.00
29549;BME280;16487;53.094;8.800;2023-04-21T12:29:41;101461.91;;;26.00;100.00
29549;BME280;16487;53.094;8.800;2023-04-21T12:32:08;101468.75;;;25.92;100.00
29549;BME280;16487;53.094;8.800;2023-04-21T12:34:38;101468.78;;;26.64;100.00
29549;BME280;16487;53.094;8.800;2023-04-21T12:37:05;101465.16;;;25.51;100.00
29549;BME280;16487;53.094;8.800;2023-04-21T12:39:33;101471.88;;;25.59;100.00
29549;BME280;16487;53.094;8.800;2023-04-21T12:42:01;101439.06;;;26.49;100.00
29549;BME280;16487;53.094;8.800;2023-04-21T12:44:28;101420.03;;;26.51;100.00
29549;BME280;16487;53.094;8.800;2023-04-21T12:46:55;101437.06;;;26.20;100.00
29549;BME280;16487;53.094;8.800;2023-04-21T12:49:24;101445.94;;;26.16;100.00
29549;BME280;16487;53.094;8.800;2023-04-21T12:51:53;101433.66;;;26.21;100.00